Time;durP1;ratioP1;P1;durP2;ratioP2;P2;SDS_P1;SDS_P2;PMS_P1;PMS_P2;Temp;Humidity;BMP_temperature;BMP_pressure;BME280_temperature;BME280_humidity;BME280_pressure;Samples;Min_cycle;Max_cycle;Signal;HPM_P1;HPM_P2
2022/11/24 00:00:52;;;;;;;498.73;475.43;;;7.90;99.90;;;;;;5019270;28;20995;-84
2022/11/24 00:03:19;;;;;;;504.83;481.37;;;7.80;99.90;;;;;;5019632;28;20441;-81
2022/11/24 00:05:46;;;;;;;505.90;482.10;;;7.90;99.90;;;;;;5000254;28;20454;-83
2022/11/24 00:08:13;;;;;;;480.60;458.67;;;8.00;99.90;;;;;;5000329;28;20836;-81
2022/11/24 00:10:40;;;;;;;468.50;447.60;;;8.00;99.90;;;;;;5018130;28;20465;-82
2022/11/24 00:13:07;;;;;;;467.47;446.53;;;8.00;99.90;;;;;;5020205;28;20469;-82
2022/11/24 00:15:35;;;;;;;439.73;419.73;;;8.00;99.90;;;;;;5002975;28;20560;-82
2022/11/24 00:18:01;;;;;;;406.70;389.93;;;8.00;99.90;;;;;;5000146;28;20855;-82
2022/11/24 00:20:28;;;;;;;371.90;357.10;;;8.20;99.90;;;;;;5014847;28;20476;-82
2022/11/24 00:22:55;;;;;;;326.33;313.63;;;8.30;99.90;;;;;;5019606;28;20473;-82
2022/11/24 00:25:22;;;;;;;296.13;284.13;;;8.30;99.90;;;;;;5005243;28;20457;-82
2022/11/24 00:27:49;;;;;;;282.67;270.97;;;8.30;99.90;;;;;;5001323;28;20506;-82
2022/11/24 00:30:16;;;;;;;313.17;300.73;;;8.30;99.90;;;;;;5011407;28;20453;-82
2022/11/24 00:32:44;;;;;;;271.97;261.87;;;8.20;99.90;;;;;;5014347;28;20485;-82
2022/11/24 00:35:11;;;;;;;289.83;278.27;;;8.20;99.90;;;;;;4999924;28;20454;-82
2022/11/24 00:37:37;;;;;;;289.63;277.87;;;8.20;99.90;;;;;;5002533;28;20454;-82
2022/11/24 00:40:05;;;;;;;293.77;283.27;;;8.10;99.90;;;;;;5018951;28;20484;-82
2022/11/24 00:42:32;;;;;;;276.37;265.23;;;8.20;99.90;;;;;;5016653;28;20579;-83
2022/11/24 00:45:00;;;;;;;285.03;273.90;;;8.10;99.90;;;;;;4999110;28;20458;-82
2022/11/24 00:47:28;;;;;;;326.80;314.20;;;8.00;99.90;;;;;;5000808;28;20458;-82
2022/11/24 00:49:56;;;;;;;272.93;262.30;;;8.10;99.90;;;;;;5018766;28;20963;-82
2022/11/24 00:52:22;;;;;;;246.43;236.77;;;8.20;99.90;;;;;;5009051;28;20478;-81
2022/11/24 00:54:49;;;;;;;253.33;243.67;;;8.20;99.90;;;;;;5014563;28;20453;-82
2022/11/24 00:57:16;;;;;;;204.77;195.97;;;8.20;99.90;;;;;;5010236;28;20457;-82
2022/11/24 00:59:43;;;;;;;226.77;218.30;;;8.10;99.90;;;;;;4999203;28;20461;-82
2022/11/24 01:02:09;;;;;;;187.83;180.53;;;8.10;99.90;;;;;;5005571;28;20481;-82
2022/11/24 01:04:36;;;;;;;187.30;179.30;;;8.30;99.90;;;;;;5019029;28;20457;-82
2022/11/24 01:07:05;;;;;;;188.17;181.13;;;8.30;99.90;;;;;;5012764;28;20540;-82
2022/11/24 01:09:32;;;;;;;180.87;172.73;;;8.30;99.90;;;;;;4998994;28;20485;-82
2022/11/24 01:12:01;;;;;;;158.27;151.90;;;8.40;99.90;;;;;;5003205;28;20471;-82
2022/11/24 01:14:28;;;;;;;128.33;122.73;;;8.40;99.90;;;;;;5018702;28;20837;-82
2022/11/24 01:16:55;;;;;;;118.23;112.40;;;8.60;99.90;;;;;;5018843;28;20456;-81
2022/11/24 01:19:22;;;;;;;88.23;84.00;;;8.60;99.90;;;;;;5018677;28;20461;-82
2022/11/24 01:21:49;;;;;;;61.93;59.00;;;8.70;99.90;;;;;;5006228;28;20578;-80
2022/11/24 01:24:17;;;;;;;48.60;45.47;;;8.70;99.90;;;;;;4999162;28;20493;-82
2022/11/24 01:26:44;;;;;;;67.40;62.90;;;8.70;99.90;;;;;;4999668;28;20458;-83
2022/11/24 01:29:11;;;;;;;67.77;64.40;;;8.50;99.90;;;;;;4999012;28;20469;-82
2022/11/24 01:31:38;;;;;;;56.30;52.73;;;8.40;99.90;;;;;;5008124;28;20476;-82
2022/11/24 01:34:05;;;;;;;66.83;63.23;;;8.40;99.90;;;;;;5018933;28;20461;-82
2022/11/24 01:36:32;;;;;;;93.70;89.30;;;8.20;99.90;;;;;;5017883;28;21010;-81
2022/11/24 01:38:59;;;;;;;105.90;100.80;;;8.20;99.90;;;;;;5018542;28;20460;-82
2022/11/24 01:41:27;;;;;;;119.53;114.53;;;8.00;99.90;;;;;;5009820;28;20484;-81
2022/11/24 01:43:55;;;;;;;126.67;121.43;;;8.00;99.90;;;;;;4998704;28;20508;-81
2022/11/24 01:46:26;;;;;;;137.00;131.00;;;8.00;99.90;;;;;;5004199;28;20456;-82
2022/11/24 01:49:01;;;;;;;151.33;144.73;;;8.00;99.90;;;;;;5018426;28;20448;-81
2022/11/24 01:51:31;;;;;;;144.77;139.30;;;7.90;99.90;;;;;;5007161;28;20465;-81
2022/11/24 01:54:02;;;;;;;160.10;153.57;;;8.00;99.90;;;;;;5018481;28;20476;-81
2022/11/24 01:56:33;;;;;;;155.73;149.87;;;8.00;99.90;;;;;;5002144;28;20450;-81
2022/11/24 01:59:02;;;;;;;183.70;176.70;;;8.10;99.90;;;;;;4998523;28;20461;-83
2022/11/24 02:01:30;;;;;;;210.50;202.67;;;8.10;99.90;;;;;;5013595;28;20473;-81
2022/11/24 02:03:58;;;;;;;184.43;176.90;;;8.20;99.90;;;;;;5018302;28;20490;-82
2022/11/24 02:06:29;;;;;;;143.37;137.40;;;8.30;99.90;;;;;;5002902;28;20458;-82
2022/11/24 02:08:58;;;;;;;151.17;145.33;;;8.30;99.90;;;;;;4998838;28;20458;-81
2022/11/24 02:11:28;;;;;;;150.97;144.67;;;8.40;99.90;;;;;;5012523;28;20491;-81
2022/11/24 02:13:57;;;;;;;153.37;146.10;;;8.50;99.90;;;;;;5017437;28;20453;-81
2022/11/24 02:16:24;;;;;;;152.03;145.17;;;8.60;99.90;;;;;;5004330;28;20462;-82
2022/11/24 02:18:51;;;;;;;149.50;143.73;;;8.60;99.90;;;;;;5000662;28;20450;-81
2022/11/24 02:21:18;;;;;;;144.60;139.23;;;8.50;99.90;;;;;;5011215;28;20484;-81
2022/11/24 02:23:50;;;;;;;135.13;128.93;;;8.60;99.90;;;;;;5000032;28;20561;-82
2022/11/24 02:26:36;;;;;;;135.30;129.20;;;8.60;99.90;;;;;;5018717;28;20456;-82
2022/11/24 02:29:03;;;;;;;130.23;124.50;;;8.60;99.90;;;;;;5015239;28;20446;-81
2022/11/24 02:31:30;;;;;;;125.20;119.23;;;8.70;99.90;;;;;;4999224;28;20486;-82
2022/11/24 02:33:58;;;;;;;135.17;128.47;;;8.70;99.90;;;;;;4999961;28;20867;-80
2022/11/24 02:36:24;;;;;;;126.07;119.63;;;8.70;99.90;;;;;;5018642;28;20483;-82
2022/11/24 02:38:51;;;;;;;112.77;108.23;;;8.60;99.90;;;;;;5017323;28;20460;-81
2022/11/24 02:41:21;;;;;;;102.33;97.33;;;8.60;99.90;;;;;;5002052;28;20855;-81
2022/11/24 02:43:52;;;;;;;104.57;99.43;;;8.50;99.90;;;;;;4999455;28;20454;-81
2022/11/24 02:46:18;;;;;;;113.40;107.87;;;8.40;99.90;;;;;;5005256;28;20536;-82
2022/11/24 02:48:45;;;;;;;102.73;98.33;;;8.30;99.90;;;;;;5009138;28;20457;-82
2022/11/24 02:51:12;;;;;;;100.37;96.07;;;8.40;99.90;;;;;;4998873;28;20443;-82
2022/11/24 02:53:39;;;;;;;107.80;103.53;;;8.30;99.90;;;;;;5001973;28;20972;-82
2022/11/24 02:56:06;;;;;;;102.53;97.73;;;8.20;99.90;;;;;;5004379;28;20454;-82
2022/11/24 02:58:33;;;;;;;107.13;102.23;;;8.20;99.90;;;;;;5021511;28;20457;-83
2022/11/24 03:01:01;;;;;;;115.90;110.80;;;8.00;99.90;;;;;;5020497;28;20476;-81
2022/11/24 03:03:28;;;;;;;119.50;114.60;;;8.00;99.90;;;;;;5017563;28;20461;-81
2022/11/24 03:05:54;;;;;;;119.63;115.30;;;8.00;99.90;;;;;;5002388;28;20964;-82
2022/11/24 03:08:21;;;;;;;143.27;137.70;;;7.90;99.90;;;;;;5002023;28;20461;-80
2022/11/24 03:10:48;;;;;;;139.60;133.20;;;7.90;99.90;;;;;;5018420;28;20464;-83
2022/11/24 03:13:15;;;;;;;166.80;160.47;;;8.00;99.90;;;;;;5021518;28;20496;-82
2022/11/24 03:15:42;;;;;;;198.23;190.37;;;7.90;99.90;;;;;;5004549;28;20450;-81
2022/11/24 03:18:10;;;;;;;191.83;184.43;;;7.90;99.90;;;;;;5001802;28;20455;-82
2022/11/24 03:20:37;;;;;;;215.63;208.07;;;8.00;99.90;;;;;;5002115;28;20505;-82
2022/11/24 03:23:03;;;;;;;219.37;210.87;;;7.90;99.90;;;;;;5010942;28;20536;-82
2022/11/24 03:25:30;;;;;;;206.07;197.50;;;7.90;99.90;;;;;;5020900;28;20457;-82
2022/11/24 03:27:57;;;;;;;178.07;170.40;;;8.00;99.90;;;;;;5012996;28;21030;-82
2022/11/24 03:30:24;;;;;;;140.13;134.43;;;8.20;99.90;;;;;;5009582;28;20449;-82
2022/11/24 03:32:52;;;;;;;141.67;136.20;;;8.20;99.90;;;;;;5021021;28;20473;-81
2022/11/24 03:35:20;;;;;;;159.20;151.90;;;8.20;99.90;;;;;;5020892;28;20606;-82
2022/11/24 03:37:47;;;;;;;157.70;150.70;;;8.10;99.90;;;;;;5020978;28;20476;-82
2022/11/24 03:40:14;;;;;;;161.80;155.10;;;8.20;99.90;;;;;;5005089;28;20462;-82
2022/11/24 03:42:41;;;;;;;147.27;141.07;;;8.20;99.90;;;;;;5009587;28;20488;-82
2022/11/24 03:45:08;;;;;;;151.00;143.90;;;8.30;99.90;;;;;;5001106;28;21007;-83
2022/11/24 03:47:35;;;;;;;144.13;137.97;;;8.20;99.90;;;;;;5001663;28;20453;-82
2022/11/24 03:50:02;;;;;;;124.67;119.20;;;8.30;99.90;;;;;;5016741;28;20453;-82
2022/11/24 03:52:30;;;;;;;120.13;113.90;;;8.30;99.90;;;;;;5017846;28;20469;-85
2022/11/24 03:54:57;;;;;;;102.13;97.43;;;8.30;99.90;;;;;;5004239;28;20541;-82
2022/11/24 03:57:23;;;;;;;114.10;107.70;;;8.50;99.90;;;;;;5002553;28;20454;-82
2022/11/24 03:59:50;;;;;;;127.43;121.40;;;8.40;99.90;;;;;;5011629;28;20445;-82
2022/11/24 04:02:17;;;;;;;123.80;118.20;;;8.50;99.90;;;;;;5020491;28;20488;-83
2022/11/24 04:04:49;;;;;;;113.40;107.97;;;8.60;99.90;;;;;;5019332;28;20453;-81
2022/11/24 04:07:16;;;;;;;100.10;94.73;;;8.60;99.90;;;;;;5015017;28;20454;-80
2022/11/24 04:09:44;;;;;;;44.63;42.23;;;8.80;99.90;;;;;;5001476;28;20451;-82
2022/11/24 04:14:55;;;;;;;42.73;39.73;;;8.90;99.90;;;;;;5014616;28;20447;-82
2022/11/24 04:17:22;;;;;;;34.10;31.60;;;9.00;99.90;;;;;;5002914;28;20830;-82
2022/11/24 04:19:49;;;;;;;26.60;24.10;;;8.90;99.90;;;;;;5001005;28;20454;-83
2022/11/24 04:22:15;;;;;;;36.37;33.73;;;8.80;99.90;;;;;;5000497;28;20897;-82
2022/11/24 04:24:44;;;;;;;29.10;26.90;;;8.80;99.90;;;;;;5003782;28;20503;-82
2022/11/24 04:27:10;;;;;;;25.73;19.63;;;8.80;99.90;;;;;;5000813;28;20458;-81
2022/11/24 04:29:37;;;;;;;27.93;22.17;;;8.90;99.90;;;;;;5006871;28;20449;-81
2022/11/24 04:32:04;;;;;;;33.22;27.25;;;8.80;99.90;;;;;;5006373;28;20461;-79
2022/11/24 04:34:31;;;;;;;24.97;20.40;;;8.80;99.90;;;;;;5007445;28;20194;-79
2022/11/24 04:36:58;;;;;;;31.37;22.47;;;8.80;99.90;;;;;;5009367;28;20840;-80
2022/11/24 04:39:25;;;;;;;27.13;23.77;;;8.80;99.90;;;;;;4995742;28;20460;-80
2022/11/24 04:41:53;;;;;;;24.40;19.90;;;8.90;99.90;;;;;;5002569;28;20484;-79
2022/11/24 04:44:20;;;;;;;18.13;13.60;;;9.00;99.90;;;;;;5015420;28;20460;-79
2022/11/24 04:46:46;;;;;;;16.73;12.33;;;9.00;99.90;;;;;;5014455;28;20450;-80
2022/11/24 04:49:13;;;;;;;28.20;12.57;;;9.00;99.90;;;;;;5014360;28;20454;-80
2022/11/24 04:51:40;;;;;;;15.00;10.77;;;9.10;99.90;;;;;;5013682;28;20481;-79
2022/11/24 04:54:09;;;;;;;18.37;12.30;;;9.10;99.90;;;;;;5013092;28;20455;-80
2022/11/24 04:56:36;;;;;;;27.03;8.83;;;9.10;99.90;;;;;;5013483;28;20464;-80
2022/11/24 04:59:04;;;;;;;20.83;9.20;;;9.10;99.90;;;;;;5012652;28;20823;-80
2022/11/24 05:01:31;;;;;;;16.80;6.27;;;9.20;99.90;;;;;;5012786;28;20493;-79
2022/11/24 05:03:58;;;;;;;15.37;7.53;;;9.30;99.90;;;;;;5013573;28;20453;-79
2022/11/24 05:06:25;;;;;;;25.90;9.13;;;9.20;99.90;;;;;;4996895;28;20807;-81
2022/11/24 05:08:53;;;;;;;18.80;9.17;;;9.30;99.90;;;;;;5006177;28;20450;-80
2022/11/24 05:11:20;;;;;;;26.67;8.67;;;9.30;99.90;;;;;;5018629;28;20501;-81
2022/11/24 05:13:47;;;;;;;29.60;9.80;;;9.30;99.90;;;;;;5018064;28;20450;-82
2022/11/24 05:16:15;;;;;;;22.20;7.60;;;9.20;99.90;;;;;;5017857;28;20464;-80
2022/11/24 05:18:42;;;;;;;31.53;8.80;;;9.00;99.90;;;;;;5017611;28;20460;-82
2022/11/24 05:21:08;;;;;;;16.97;10.70;;;9.20;99.90;;;;;;5018587;28;20479;-81
2022/11/24 05:23:35;;;;;;;27.30;10.47;;;9.10;99.90;;;;;;5015081;28;20457;-81
2022/11/24 05:26:03;;;;;;;19.30;11.70;;;8.90;99.90;;;;;;5018665;28;20457;-81
2022/11/24 05:28:30;;;;;;;22.17;11.70;;;8.90;99.90;;;;;;5013919;28;21921;-81
2022/11/24 05:31:00;;;;;;;21.73;13.13;;;8.90;99.90;;;;;;4997548;28;20462;-81
2022/11/24 05:33:28;;;;;;;29.67;16.20;;;8.90;99.90;;;;;;5014697;28;20940;-81
2022/11/24 05:35:59;;;;;;;21.53;19.40;;;8.80;99.90;;;;;;5017765;28;20487;-80
2022/11/24 05:38:26;;;;;;;24.17;21.57;;;8.70;99.90;;;;;;4999389;28;20462;-81
2022/11/24 05:40:53;;;;;;;30.00;27.00;;;8.60;99.90;;;;;;4996902;28;20957;-82
2022/11/24 05:43:20;;;;;;;28.93;26.17;;;8.60;99.90;;;;;;5012194;28;21029;-81
2022/11/24 05:45:46;;;;;;;33.83;30.57;;;8.70;99.90;;;;;;5017612;28;20457;-80
2022/11/24 05:48:14;;;;;;;42.83;39.67;;;8.60;99.90;;;;;;5008492;28;20453;-80
2022/11/24 05:50:42;;;;;;;45.53;41.50;;;8.50;99.90;;;;;;5017053;28;20460;-83
2022/11/24 05:53:11;;;;;;;36.13;33.70;;;8.60;99.90;;;;;;5003938;28;20466;-79
2022/11/24 05:55:38;;;;;;;35.33;32.53;;;8.70;99.90;;;;;;4997891;28;20458;-82
2022/11/24 05:58:07;;;;;;;26.33;24.33;;;8.70;99.90;;;;;;4998246;28;20454;-81
2022/11/24 06:00:36;;;;;;;23.50;15.70;;;8.70;99.90;;;;;;4997388;28;20462;-81
2022/11/24 06:03:03;;;;;;;25.43;10.03;;;8.90;99.90;;;;;;4998506;28;20477;-82
2022/11/24 06:05:30;;;;;;;17.97;8.77;;;9.00;99.90;;;;;;4999216;28;20457;-81
2022/11/24 06:07:59;;;;;;;13.73;7.27;;;9.00;99.90;;;;;;5006409;28;20450;-82
2022/11/24 06:10:26;;;;;;;22.30;7.23;;;8.90;99.90;;;;;;5017818;28;20464;-81
2022/11/24 06:12:53;;;;;;;21.70;5.03;;;8.80;99.90;;;;;;5009780;28;20478;-81
2022/11/24 06:15:20;;;;;;;21.90;5.70;;;8.80;99.90;;;;;;4999787;28;20462;-81
2022/11/24 06:17:53;;;;;;;9.93;3.93;;;8.60;99.90;;;;;;4999153;28;20457;-82
2022/11/24 06:20:20;;;;;;;12.80;3.50;;;8.70;99.90;;;;;;4999117;28;20485;-80
2022/11/24 06:22:47;;;;;;;7.50;2.30;;;8.70;99.90;;;;;;4998148;28;20482;-81
2022/11/24 06:25:15;;;;;;;9.80;3.10;;;8.70;99.90;;;;;;4997652;28;20454;-82
2022/11/24 06:27:42;;;;;;;10.00;2.20;;;8.60;99.90;;;;;;4999833;28;20453;-81
2022/11/24 06:30:10;;;;;;;6.00;2.07;;;8.70;99.90;;;;;;5000494;28;20454;-80
2022/11/24 06:32:37;;;;;;;7.20;2.10;;;8.80;99.90;;;;;;5009543;28;20855;-81
2022/11/24 06:35:05;;;;;;;7.40;2.10;;;8.70;99.90;;;;;;5021383;28;20453;-81
2022/11/24 06:37:32;;;;;;;5.23;2.57;;;8.60;99.90;;;;;;5010208;28;20830;-82
2022/11/24 06:39:58;;;;;;;5.00;2.40;;;8.60;99.90;;;;;;5000672;28;20974;-81
2022/11/24 06:42:26;;;;;;;11.90;2.30;;;8.50;99.90;;;;;;5006388;28;20480;-81
2022/11/24 06:44:53;;;;;;;8.67;1.90;;;8.50;99.90;;;;;;5021015;28;20464;-80
2022/11/24 06:47:20;;;;;;;5.87;1.50;;;8.40;99.90;;;;;;5020255;28;20460;-80
2022/11/24 06:49:47;;;;;;;6.17;1.73;;;8.30;99.90;;;;;;5020384;28;20445;-81
2022/11/24 06:52:16;;;;;;;4.30;1.80;;;8.30;99.90;;;;;;5007284;28;20477;-81
2022/11/24 06:54:42;;;;;;;4.03;1.70;;;8.10;99.90;;;;;;5003654;28;20482;-82
2022/11/24 06:57:09;;;;;;;3.20;1.80;;;8.00;99.90;;;;;;5008296;28;20454;-81
2022/11/24 06:59:37;;;;;;;5.00;2.83;;;7.90;99.90;;;;;;5007306;28;20453;-80
2022/11/24 07:02:04;;;;;;;5.97;2.67;;;7.80;99.90;;;;;;5017852;28;20476;-81
2022/11/24 07:04:31;;;;;;;7.13;3.40;;;7.60;99.90;;;;;;5020262;28;20453;-80
2022/11/24 07:06:58;;;;;;;7.93;5.00;;;7.50;99.90;;;;;;5019899;28;20445;-81
2022/11/24 07:09:27;;;;;;;7.70;5.20;;;7.50;99.90;;;;;;5013853;28;20450;-81
2022/11/24 07:11:55;;;;;;;7.53;6.93;;;7.50;99.90;;;;;;5013152;28;20470;-81
2022/11/24 07:14:22;;;;;;;8.43;7.07;;;7.50;99.90;;;;;;5020637;28;20544;-81
2022/11/24 07:16:51;;;;;;;9.43;8.03;;;7.60;99.90;;;;;;5005383;28;20458;-81
2022/11/24 07:19:17;;;;;;;8.27;7.53;;;7.60;99.90;;;;;;5009970;28;20460;-81
2022/11/24 07:21:44;;;;;;;10.20;9.43;;;7.70;99.90;;;;;;5000989;28;20481;-82
2022/11/24 07:24:11;;;;;;;10.17;8.77;;;7.80;99.90;;;;;;5008313;28;20981;-81
2022/11/24 07:26:38;;;;;;;8.60;7.90;;;7.90;99.90;;;;;;5004626;28;20448;-81
2022/11/24 07:29:05;;;;;;;8.57;7.83;;;8.00;99.90;;;;;;5008514;28;20480;-82
2022/11/24 07:31:32;;;;;;;6.80;6.13;;;8.10;99.90;;;;;;5009946;28;20471;-82
2022/11/24 07:34:00;;;;;;;5.30;4.17;;;8.20;99.90;;;;;;5012268;28;20457;-81
2022/11/24 07:36:27;;;;;;;8.10;4.17;;;8.30;99.90;;;;;;5006773;28;20456;-84
2022/11/24 07:38:54;;;;;;;10.17;4.00;;;8.30;99.90;;;;;;5009543;28;20963;-80
2022/11/24 07:41:20;;;;;;;10.33;3.97;;;8.30;99.90;;;;;;5018444;28;20472;-79
2022/11/24 07:43:48;;;;;;;6.53;3.23;;;8.30;99.90;;;;;;5020320;28;20484;-82
2022/11/24 07:46:17;;;;;;;6.90;3.23;;;8.20;99.90;;;;;;5020631;28;21010;-82
2022/11/24 07:48:44;;;;;;;7.17;3.33;;;8.30;99.90;;;;;;5020184;28;20548;-82
2022/11/24 07:51:12;;;;;;;12.43;3.70;;;8.30;99.90;;;;;;5020448;28;20460;-82
2022/11/24 07:53:39;;;;;;;7.83;3.60;;;8.40;99.90;;;;;;5020057;28;20449;-81
2022/11/24 07:56:07;;;;;;;7.67;3.80;;;8.40;99.90;;;;;;5020093;28;20461;-82
2022/11/24 07:58:36;;;;;;;8.00;3.53;;;8.50;99.90;;;;;;5020185;28;20461;-82
2022/11/24 08:01:10;;;;;;;7.40;3.33;;;8.60;99.90;;;;;;5019144;28;20445;-82
2022/11/24 08:03:37;;;;;;;8.57;3.30;;;8.70;99.90;;;;;;5019368;28;20476;-80
2022/11/24 08:06:03;;;;;;;8.40;3.33;;;8.70;99.90;;;;;;5019387;28;20472;-82
2022/11/24 08:08:33;;;;;;;9.20;3.20;;;8.90;99.90;;;;;;5005720;28;20973;-82
2022/11/24 08:11:05;;;;;;;9.03;3.30;;;8.90;99.90;;;;;;4999410;28;21100;-82
2022/11/24 08:13:32;;;;;;;11.83;3.90;;;8.90;99.90;;;;;;5000075;28;20502;-82
2022/11/24 08:15:58;;;;;;;6.60;2.73;;;9.00;99.90;;;;;;5000546;28;20458;-80
2022/11/24 08:18:26;;;;;;;8.57;2.57;;;9.10;99.90;;;;;;4999825;28;21004;-83
2022/11/24 08:20:53;;;;;;;8.03;2.50;;;9.10;99.90;;;;;;4999279;28;20556;-83
2022/11/24 08:23:20;;;;;;;17.27;3.33;;;9.20;99.90;;;;;;4999739;28;21006;-83
2022/11/24 08:25:48;;;;;;;8.50;2.30;;;9.20;99.90;;;;;;4999509;28;20454;-82
2022/11/24 08:28:14;;;;;;;8.27;2.87;;;9.30;99.90;;;;;;4999764;28;20454;-83
2022/11/24 08:30:41;;;;;;;8.20;2.50;;;9.30;99.90;;;;;;5006163;28;20445;-82
2022/11/24 08:33:08;;;;;;;8.70;2.43;;;9.30;99.90;;;;;;5019975;28;20469;-82
2022/11/24 08:35:36;;;;;;;9.53;2.50;;;9.40;99.90;;;;;;5019434;28;20951;-82
2022/11/24 08:38:03;;;;;;;6.93;2.30;;;9.50;99.90;;;;;;5019935;28;20507;-82
2022/11/24 08:40:30;;;;;;;5.73;2.47;;;9.40;99.90;;;;;;5020183;28;20460;-82
2022/11/24 08:42:58;;;;;;;8.83;2.03;;;9.50;99.90;;;;;;5019319;28;20485;-81
2022/11/24 08:45:26;;;;;;;6.40;2.00;;;9.40;99.90;;;;;;5019294;28;20843;-82
2022/11/24 08:47:53;;;;;;;18.00;3.00;;;9.50;99.90;;;;;;5019781;28;20475;-82
2022/11/24 08:50:20;;;;;;;13.70;2.57;;;9.60;99.90;;;;;;5018591;28;20487;-81
2022/11/24 08:52:47;;;;;;;6.97;2.43;;;9.60;99.90;;;;;;5019226;28;20592;-82
2022/11/24 08:55:14;;;;;;;13.40;2.97;;;9.60;99.90;;;;;;5019672;28;20842;-82
2022/11/24 08:57:41;;;;;;;22.80;3.57;;;9.70;99.90;;;;;;5019704;28;20459;-82
2022/11/24 09:00:12;;;;;;;13.80;3.23;;;9.80;99.90;;;;;;5019363;28;20457;-82
2022/11/24 09:02:39;;;;;;;10.67;2.70;;;9.80;99.90;;;;;;5019384;28;20832;-82
2022/11/24 09:05:06;;;;;;;12.03;2.90;;;9.90;99.90;;;;;;5019177;28;20460;-84
2022/11/24 09:07:33;;;;;;;12.40;2.63;;;9.90;99.90;;;;;;5019129;28;20457;-82
2022/11/24 09:09:59;;;;;;;12.20;2.73;;;9.90;99.90;;;;;;5019197;28;20461;-82
2022/11/24 09:12:27;;;;;;;12.83;2.60;;;9.80;99.90;;;;;;5018891;28;20827;-83
2022/11/24 09:14:53;;;;;;;22.97;4.00;;;9.80;99.90;;;;;;5019997;28;20453;-82
2022/11/24 09:17:21;;;;;;;16.33;2.97;;;9.80;99.90;;;;;;5019440;28;20458;-84
2022/11/24 09:19:48;;;;;;;15.63;2.80;;;9.80;99.90;;;;;;5018998;28;20456;-82
2022/11/24 09:22:15;;;;;;;6.60;2.53;;;9.60;99.90;;;;;;5019072;28;20480;-82
2022/11/24 09:24:41;;;;;;;10.40;2.23;;;9.50;99.90;;;;;;5019273;28;20461;-82
2022/11/24 09:27:08;;;;;;;18.23;2.80;;;9.30;99.90;;;;;;5019294;28;20524;-82
2022/11/24 09:29:37;;;;;;;17.87;3.00;;;9.30;99.90;;;;;;5018991;28;20466;-83
2022/11/24 09:32:04;;;;;;;9.07;2.77;;;9.30;99.90;;;;;;5019003;28;20480;-82
2022/11/24 09:34:32;;;;;;;15.87;3.13;;;9.20;99.90;;;;;;5019503;28;20452;-82
2022/11/24 09:36:59;;;;;;;11.70;3.30;;;9.40;99.90;;;;;;5019114;28;20460;-82
2022/11/24 09:39:26;;;;;;;8.23;2.83;;;9.30;99.90;;;;;;5019365;28;20461;-82
2022/11/24 09:42:13;;;;;;;20.83;2.50;;;9.40;99.90;;;;;;5018502;28;20479;-82
2022/11/24 09:45:08;;;;;;;12.20;2.50;;;9.30;99.90;;;;;;5018917;28;21090;-82
2022/11/24 09:47:44;;;;;;;15.67;2.50;;;9.30;99.90;;;;;;5018840;28;20859;-82
2022/11/24 09:50:16;;;;;;;10.87;2.80;;;9.50;99.90;;;;;;5020022;28;20535;-82
2022/11/24 09:52:48;;;;;;;7.70;2.83;;;9.50;99.90;;;;;;5018948;28;20465;-83
2022/11/24 09:55:31;;;;;;;11.00;2.37;;;9.60;99.90;;;;;;5019056;28;20461;-82
2022/11/24 09:58:09;;;;;;;7.30;2.10;;;9.50;99.90;;;;;;5018740;28;20457;-82
2022/11/24 10:00:37;;;;;;;12.63;2.90;;;9.50;99.90;;;;;;5018771;28;20456;-82
2022/11/24 10:03:04;;;;;;;19.47;2.97;;;9.50;99.90;;;;;;5022010;28;20488;-82
2022/11/24 10:05:35;;;;;;;13.10;2.73;;;9.40;99.90;;;;;;5022958;28;20986;-82
2022/11/24 10:08:21;;;;;;;14.60;2.27;;;9.40;99.90;;;;;;5023218;28;20457;-82
2022/11/24 10:10:54;;;;;;;10.90;2.90;;;9.40;99.90;;;;;;5023030;28;20834;-82
2022/11/24 10:13:35;;;;;;;11.00;2.60;;;9.40;99.90;;;;;;5022551;28;20461;-82
2022/11/24 10:16:10;;;;;;;14.07;2.97;;;9.40;99.90;;;;;;5022545;28;20457;-82
2022/11/24 10:18:49;;;;;;;9.30;2.70;;;9.40;99.90;;;;;;5022500;28;20987;-82
2022/11/24 10:21:48;;;;;;;6.03;2.03;;;9.40;99.90;;;;;;5022844;28;20476;-83
2022/11/24 10:24:38;;;;;;;16.30;3.27;;;9.40;99.90;;;;;;5020173;28;20890;-82
2022/11/24 10:27:17;;;;;;;7.17;2.30;;;9.40;99.90;;;;;;5023018;28;20460;-82
2022/11/24 10:29:48;;;;;;;9.50;2.80;;;9.50;99.90;;;;;;5022904;28;20463;-83
2022/11/24 10:32:18;;;;;;;8.53;2.80;;;9.60;99.90;;;;;;5023138;28;20507;-82
2022/11/24 10:34:48;;;;;;;11.33;3.40;;;9.50;99.90;;;;;;5022488;28;20455;-82
2022/11/24 10:37:21;;;;;;;15.50;4.30;;;9.60;99.90;;;;;;5023250;28;20463;-83
2022/11/24 10:39:58;;;;;;;6.73;2.33;;;9.50;99.90;;;;;;5023029;28;20466;-82
2022/11/24 10:42:29;;;;;;;11.97;2.97;;;9.70;99.90;;;;;;5020574;28;20484;-82
2022/11/24 10:45:00;;;;;;;7.70;2.73;;;9.60;99.90;;;;;;5023451;28;20899;-82
2022/11/24 10:47:27;;;;;;;11.27;2.77;;;9.60;99.90;;;;;;5022829;28;20480;-84
2022/11/24 10:50:00;;;;;;;14.27;3.40;;;9.70;99.90;;;;;;5022255;28;20458;-82
2022/11/24 10:52:28;;;;;;;7.73;2.40;;;9.90;99.90;;;;;;5022200;28;20469;-82
2022/11/24 10:54:59;;;;;;;9.70;2.37;;;10.00;99.90;;;;;;5022018;28;20452;-82
2022/11/24 10:57:31;;;;;;;24.83;2.73;;;10.00;99.90;;;;;;5022122;28;20457;-84
2022/11/24 10:59:58;;;;;;;10.03;2.60;;;10.10;99.90;;;;;;5022383;28;20457;-82
2022/11/24 11:02:34;;;;;;;10.87;2.57;;;10.20;99.90;;;;;;5022117;28;20488;-82
2022/11/24 11:05:25;;;;;;;15.87;2.37;;;10.30;99.90;;;;;;5021734;28;20483;-82
2022/11/24 11:08:14;;;;;;;8.80;2.23;;;10.30;99.90;;;;;;5023126;28;20461;-82
2022/11/24 11:10:44;;;;;;;6.80;2.37;;;10.40;99.90;;;;;;5022036;28;20459;-82
2022/11/24 11:13:25;;;;;;;16.90;3.23;;;10.40;99.90;;;;;;5021997;28;20465;-83
2022/11/24 11:15:52;;;;;;;13.17;2.70;;;10.60;99.90;;;;;;5022453;28;20457;-82
2022/11/24 11:18:20;;;;;;;12.70;2.67;;;10.60;99.90;;;;;;5022217;28;20463;-82
2022/11/24 11:20:53;;;;;;;13.07;3.07;;;10.90;99.90;;;;;;5023239;28;20491;-82
2022/11/24 11:23:25;;;;;;;10.10;2.23;;;11.30;99.90;;;;;;5023831;28;21002;-83
2022/11/24 11:26:17;;;;;;;10.70;2.07;;;11.50;99.90;;;;;;5023847;28;20453;-83
2022/11/24 11:28:57;;;;;;;10.70;2.77;;;11.50;99.90;;;;;;5024778;28;20464;-82
2022/11/24 11:31:24;;;;;;;8.57;2.00;;;11.80;99.90;;;;;;5023003;28;20477;-83
2022/11/24 11:34:01;;;;;;;17.83;2.90;;;12.20;99.90;;;;;;5023855;28;20453;-84
2022/11/24 11:36:29;;;;;;;12.77;3.50;;;12.50;99.90;;;;;;5022584;28;20465;-84
2022/11/24 11:38:57;;;;;;;14.73;2.37;;;12.60;99.80;;;;;;5023258;28;20458;-84
2022/11/24 11:41:29;;;;;;;8.90;2.03;;;12.80;99.40;;;;;;5024584;28;20479;-84
2022/11/24 11:44:07;;;;;;;8.87;2.83;;;13.10;98.90;;;;;;5024450;28;20482;-84
2022/11/24 11:46:33;;;;;;;10.20;2.17;;;13.20;98.80;;;;;;5024234;28;20452;-84
2022/11/24 11:49:00;;;;;;;10.47;2.50;;;13.20;98.20;;;;;;5024726;28;20442;-85
2022/11/24 11:51:46;;;;;;;10.60;2.40;;;13.30;97.70;;;;;;5023094;28;20499;-84
2022/11/24 11:54:25;;;;;;;13.80;2.63;;;13.20;97.60;;;;;;5025015;28;20454;-84
2022/11/24 11:57:02;;;;;;;8.20;2.00;;;13.20;97.80;;;;;;5024884;28;20452;-84
2022/11/24 11:59:44;;;;;;;17.83;2.30;;;12.80;97.20;;;;;;5023343;28;20454;-85
2022/11/24 12:05:46;;;;;;;16.60;2.73;;;13.30;97.40;;;;;;5024464;28;20428;-84
2022/11/24 12:08:24;;;;;;;12.10;2.73;;;13.70;96.80;;;;;;5024967;28;20452;-84
2022/11/24 12:10:57;;;;;;;17.93;3.00;;;14.00;96.10;;;;;;5023914;28;20503;-84
2022/11/24 12:13:54;;;;;;;16.27;2.77;;;14.10;95.10;;;;;;5023931;28;20445;-84
2022/11/24 12:16:33;;;;;;;15.83;2.60;;;13.90;94.90;;;;;;5012265;28;20548;-84
2022/11/24 12:19:19;;;;;;;12.10;3.90;;;13.70;94.60;;;;;;5023199;28;20462;-85
2022/11/24 12:21:55;;;;;;;15.70;2.47;;;13.70;95.20;;;;;;5023422;28;20475;-84
2022/11/24 12:24:29;;;;;;;11.00;2.50;;;13.40;95.20;;;;;;5023339;28;20480;-84
2022/11/24 12:27:00;;;;;;;15.20;2.30;;;12.80;96.50;;;;;;5024880;28;20523;-85
2022/11/24 12:29:57;;;;;;;10.07;2.20;;;12.30;97.40;;;;;;5025540;28;20459;-84
2022/11/24 12:32:59;;;;;;;17.63;2.97;;;11.90;98.10;;;;;;5025462;28;20485;-84
2022/11/24 12:35:32;;;;;;;10.23;2.23;;;11.60;98.80;;;;;;5010041;28;20456;-84
2022/11/24 12:38:14;;;;;;;13.57;2.50;;;11.30;99.90;;;;;;5026030;28;20453;-83
2022/11/24 12:40:57;;;;;;;11.47;2.20;;;11.40;99.90;;;;;;5024972;28;20459;-83
2022/11/24 12:43:32;;;;;;;10.90;2.53;;;11.40;99.90;;;;;;5024741;28;20456;-83
2022/11/24 12:46:07;;;;;;;13.60;2.33;;;11.40;99.90;;;;;;5025301;28;20976;-84
2022/11/24 12:48:46;;;;;;;23.80;3.10;;;11.70;99.90;;;;;;5024966;28;20449;-83
2022/11/24 12:51:17;;;;;;;15.00;3.07;;;12.40;99.90;;;;;;5024214;28;20518;-84
2022/11/24 12:53:46;;;;;;;19.20;3.47;;;13.10;98.60;;;;;;5024003;28;20501;-83
2022/11/24 12:56:16;;;;;;;13.23;2.77;;;13.60;97.00;;;;;;5024672;28;20502;-84